Time,TemperatureF,DewpointF,PressureIn,WindDirection,WindDirectionDegrees,WindSpeedMPH,WindSpeedGustMPH,Humidity,HourlyPrecipIn,Conditions,Clouds,dailyrainin,SoftwareType,DateUTC
2013-03-20 00:03:00,51.4,22.0,29.57,South,180,0.0,0.7,20,0.00,,,0.00,fowsr,2013-03-20 04:03:00,
2013-03-20 00:08:00,51.1,21.7,29.56,SW,225,0.0,1.6,20,0.00,,,0.00,fowsr,2013-03-20 04:08:00,
2013-03-20 00:13:00,51.1,21.7,29.56,West,270,0.7,2.2,20,0.00,,,0.00,fowsr,2013-03-20 04:13:00,
2013-03-20 00:18:00,50.9,21.6,29.56,East,90,0.7,2.2,20,0.00,,,0.00,fowsr,2013-03-20 04:18:00,
2013-03-20 00:23:00,51.1,21.7,29.56,NW,315,0.7,3.1,20,0.00,,,0.00,fowsr,2013-03-20 04:23:00,
2013-03-20 00:28:00,51.3,21.9,29.57,West,270,0.7,2.2,20,0.00,,,0.00,fowsr,2013-03-20 04:28:00,
2013-03-20 00:33:00,51.3,21.9,29.57,West,270,0.0,0.7,20,0.00,,,0.00,fowsr,2013-03-20 04:33:00,
2013-03-20 00:38:00,51.3,21.9,29.57,SE,135,0.0,1.6,20,0.00,,,0.00,fowsr,2013-03-20 04:38:00,
2013-03-20 00:48:00,50.9,21.6,29.57,West,270,0.0,1.6,20,0.00,,,0.00,fowsr,2013-03-20 04:48:00,
2013-03-20 00:53:00,50.7,21.4,29.57,West,270,0.7,1.6,20,0.00,,,0.00,fowsr,2013-03-20 04:53:00,
2013-03-20 00:58:00,50.5,21.3,29.57,East,90,0.0,0.7,20,0.00,,,0.00,fowsr,2013-03-20 04:58:00,
2013-03-20 01:03:00,50.4,21.1,29.57,SE,135,0.7,2.2,20,0.00,,,0.00,fowsr,2013-03-20 05:03:00,
2013-03-20 01:08:00,50.2,21.0,29.57,North,0,0.7,1.6,20,0.00,,,0.00,fowsr,2013-03-20 05:08:00,
2013-03-20 01:13:00,50.0,20.8,29.57,South,180,0.0,0.7,20,0.00,,,0.00,fowsr,2013-03-20 05:13:00,
2013-03-20 01:18:00,50.0,20.8,29.57,NW,315,0.0,0.7,20,0.00,,,0.00,fowsr,2013-03-20 05:18:00,
2013-03-20 01:23:00,49.8,21.5,29.57,SW,225,0.0,0.7,21,0.00,,,0.00,fowsr,2013-03-20 05:23:00,
2013-03-20 01:28:00,49.8,21.5,29.57,SW,225,1.6,2.2,21,0.00,,,0.00,fowsr,2013-03-20 05:28:00,
2013-03-20 01:33:00,50.0,20.8,29.57,NW,315,0.0,0.7,20,0.00,,,0.00,fowsr,2013-03-20 05:33:00,
2013-03-20 01:38:00,50.0,20.8,29.57,West,270,0.0,1.6,20,0.00,,,0.00,fowsr,2013-03-20 05:38:00,
2013-03-20 01:43:00,49.8,21.5,29.58,West,270,0.0,0.0,21,0.00,,,0.00,fowsr,2013-03-20 05:43:00,
2013-03-20 01:48:00,49.5,21.2,29.58,North,0,0.0,0.7,21,0.00,,,0.00,fowsr,2013-03-20 05:48:00,
2013-03-20 01:58:00,49.1,20.9,29.58,SE,135,0.0,0.7,21,0.00,,,0.00,fowsr,2013-03-20 05:58:00,
2013-03-20 02:08:00,48.9,20.8,29.58,SW,225,0.0,0.7,21,0.00,,,0.00,fowsr,2013-03-20 06:08:00,
2013-03-20 02:13:00,48.7,20.6,29.57,SW,225,0.0,0.0,21,0.00,,,0.00,fowsr,2013-03-20 06:13:00,
2013-03-20 02:18:00,48.6,20.5,29.58,South,180,0.0,0.7,21,0.00,,,0.00,fowsr,2013-03-20 06:18:00,
2013-03-20 02:28:00,48.2,20.2,29.58,SE,135,0.0,0.7,21,0.00,,,0.00,fowsr,2013-03-20 06:28:00,
2013-03-20 02:33:00,47.8,20.6,29.58,SE,135,0.0,0.0,22,0.00,,,0.00,fowsr,2013-03-20 06:33:00,
2013-03-20 02:38:00,47.8,20.6,29.59,SW,225,0.0,0.0,22,0.00,,,0.00,fowsr,2013-03-20 06:38:00,
2013-03-20 02:43:00,47.7,20.5,29.58,North,0,0.0,0.0,22,0.00,,,0.00,fowsr,2013-03-20 06:43:00,
2013-03-20 02:49:00,47.5,20.3,29.58,NW,315,0.0,0.0,22,0.00,,,0.00,fowsr,2013-03-20 06:49:00,
2013-03-20 02:58:00,46.8,19.7,29.58,NE,45,0.0,0.0,22,0.00,,,0.00,fowsr,2013-03-20 06:58:00,
2013-03-20 03:03:00,46.6,19.6,29.58,NW,315,0.0,0.7,22,0.00,,,0.00,fowsr,2013-03-20 07:03:00,
2013-03-20 03:13:00,45.7,16.5,29.58,North,0,0.0,0.0,19,0.00,,,0.00,fowsr,2013-03-20 07:13:00,
2013-03-20 03:18:00,45.5,16.4,29.57,SE,135,0.0,0.0,19,0.00,,,0.00,fowsr,2013-03-20 07:18:00,
2013-03-20 03:23:00,45.1,16.1,29.58,SE,135,0.0,0.0,19,0.00,,,0.00,fowsr,2013-03-20 07:23:00,
2013-03-20 03:28:00,44.8,15.8,29.57,SE,135,0.0,0.0,19,0.00,,,0.00,fowsr,2013-03-20 07:28:00,
2013-03-20 03:33:00,44.6,15.7,29.58,SE,135,0.0,0.7,19,0.00,,,0.00,fowsr,2013-03-20 07:33:00,
2013-03-20 03:38:00,44.2,16.9,29.58,SE,135,0.0,0.0,21,0.00,,,0.00,fowsr,2013-03-20 07:38:00,
2013-03-20 03:48:00,43.5,16.4,29.58,SE,135,0.0,0.0,21,0.00,,,0.00,fowsr,2013-03-20 07:48:00,
2013-03-20 03:53:00,43.2,16.8,29.58,SE,135,0.0,0.0,22,0.00,,,0.00,fowsr,2013-03-20 07:53:00,
2013-03-20 03:58:00,42.6,17.1,29.57,SE,135,0.0,0.0,23,0.00,,,0.00,fowsr,2013-03-20 07:58:00,
2013-03-20 04:03:00,42.4,16.2,29.57,SE,135,0.0,0.0,22,0.00,,,0.00,fowsr,2013-03-20 08:03:00,
2013-03-20 04:08:00,41.9,17.1,29.58,SE,135,0.0,0.0,24,0.00,,,0.00,fowsr,2013-03-20 08:08:00,
2013-03-20 04:13:00,41.5,17.5,29.57,SE,135,0.0,0.0,25,0.00,,,0.00,fowsr,2013-03-20 08:13:00,
2013-03-20 04:18:00,41.2,17.8,29.58,SE,135,0.0,0.0,26,0.00,,,0.00,fowsr,2013-03-20 08:18:00,
2013-03-20 04:23:00,41.0,18.2,29.58,SE,135,0.0,0.0,27,0.00,,,0.00,fowsr,2013-03-20 08:23:00,
2013-03-20 04:28:00,40.6,19.6,29.57,SE,135,0.0,0.0,30,0.00,,,0.00,fowsr,2013-03-20 08:28:00,
2013-03-20 04:33:00,40.5,20.5,29.57,SE,135,0.0,0.0,32,0.00,,,0.00,fowsr,2013-03-20 08:33:00,
2013-03-20 04:38:00,40.1,20.2,29.57,SE,135,0.0,0.0,32,0.00,,,0.00,fowsr,2013-03-20 08:38:00,
2013-03-20 04:43:00,39.9,20.6,29.57,SE,135,0.0,0.0,33,0.00,,,0.00,fowsr,2013-03-20 08:43:00,
2013-03-20 04:53:00,39.6,21.2,29.57,SE,135,0.0,0.0,35,0.00,,,0.00,fowsr,2013-03-20 08:53:00,
2013-03-20 04:58:00,39.4,21.5,29.57,SE,135,0.0,0.0,36,0.00,,,0.00,fowsr,2013-03-20 08:58:00,
2013-03-20 05:03:00,39.2,20.4,29.57,SE,135,0.0,0.0,34,0.00,,,0.00,fowsr,2013-03-20 09:03:00,
2013-03-20 05:08:00,39.0,20.7,29.57,SE,135,0.0,0.0,35,0.00,,,0.00,fowsr,2013-03-20 09:08:00,
2013-03-20 05:13:00,39.2,19.9,29.57,NW,315,0.0,0.0,33,0.00,,,0.00,fowsr,2013-03-20 09:13:00,
2013-03-20 05:18:00,39.6,20.2,29.57,North,0,0.0,0.0,33,0.00,,,0.00,fowsr,2013-03-20 09:18:00,
2013-03-20 05:23:00,39.7,19.9,29.58,North,0,0.0,0.0,32,0.00,,,0.00,fowsr,2013-03-20 09:23:00,
2013-03-20 05:28:00,40.3,20.4,29.57,East,90,0.0,0.0,32,0.00,,,0.00,fowsr,2013-03-20 09:28:00,
2013-03-20 05:33:00,40.6,19.1,29.58,NW,315,0.0,0.0,29,0.00,,,0.00,fowsr,2013-03-20 09:33:00,
2013-03-20 05:38:00,40.8,18.1,29.58,East,90,0.0,0.0,27,0.00,,,0.00,fowsr,2013-03-20 09:38:00,
2013-03-20 05:43:00,41.2,17.8,29.59,SW,225,0.0,0.0,26,0.00,,,0.00,fowsr,2013-03-20 09:43:00,
2013-03-20 05:48:00,41.4,17.3,29.58,East,90,0.0,0.0,25,0.00,,,0.00,fowsr,2013-03-20 09:48:00,
2013-03-20 05:53:00,41.4,17.3,29.58,East,90,0.0,0.0,25,0.00,,,0.00,fowsr,2013-03-20 09:53:00,
2013-03-20 05:58:00,41.4,17.9,29.59,NW,315,0.0,0.0,26,0.00,,,0.00,fowsr,2013-03-20 09:58:00,
2013-03-20 06:03:00,41.4,17.9,29.59,NW,315,0.0,0.7,26,0.00,,,0.00,fowsr,2013-03-20 10:03:00,
2013-03-20 06:08:00,41.2,19.0,29.59,East,90,0.0,0.7,28,0.00,,,0.00,fowsr,2013-03-20 10:08:00,
2013-03-20 06:13:00,41.0,18.2,29.59,NW,315,0.0,0.0,27,0.00,,,0.00,fowsr,2013-03-20 10:13:00,
2013-03-20 06:23:00,41.0,17.6,29.59,East,90,0.0,0.0,26,0.00,,,0.00,fowsr,2013-03-20 10:23:00,
2013-03-20 06:28:00,41.0,17.6,29.59,East,90,0.0,0.0,26,0.00,,,0.00,fowsr,2013-03-20 10:28:00,
2013-03-20 06:33:00,41.0,17.0,29.60,NW,315,0.0,0.0,25,0.00,,,0.00,fowsr,2013-03-20 10:33:00,
2013-03-20 06:38:00,41.0,17.6,29.60,South,180,0.0,0.0,26,0.00,,,0.00,fowsr,2013-03-20 10:38:00,
2013-03-20 06:43:00,41.0,17.6,29.60,South,180,0.0,0.0,26,0.00,,,0.00,fowsr,2013-03-20 10:43:00,
2013-03-20 06:48:00,40.8,17.5,29.61,NW,315,0.0,0.0,26,0.00,,,0.00,fowsr,2013-03-20 10:48:00,
2013-03-20 06:53:00,40.8,17.5,29.61,South,180,0.0,0.0,26,0.00,,,0.00,fowsr,2013-03-20 10:53:00,
2013-03-20 06:58:00,40.8,17.5,29.61,North,0,0.0,0.0,26,0.00,,,0.00,fowsr,2013-03-20 10:58:00,
2013-03-20 07:03:00,40.8,16.9,29.61,NW,315,0.0,0.0,25,0.00,,,0.00,fowsr,2013-03-20 11:03:00,
2013-03-20 07:08:00,40.8,16.9,29.62,South,180,0.0,0.0,25,0.00,,,0.00,fowsr,2013-03-20 11:08:00,
2013-03-20 07:13:00,41.0,16.4,29.62,NW,315,0.0,0.0,24,0.00,,,0.00,fowsr,2013-03-20 11:13:00,
2013-03-20 07:18:00,41.0,16.4,29.62,West,270,0.0,0.0,24,0.00,,,0.00,fowsr,2013-03-20 11:18:00,
2013-03-20 07:23:00,41.0,16.4,29.62,West,270,0.0,0.0,24,0.00,,,0.00,fowsr,2013-03-20 11:23:00,
2013-03-20 07:28:00,41.2,16.5,29.62,South,180,0.0,0.0,24,0.00,,,0.00,fowsr,2013-03-20 11:28:00,
2013-03-20 07:33:00,41.4,16.7,29.63,West,270,0.0,0.0,24,0.00,,,0.00,fowsr,2013-03-20 11:33:00,
2013-03-20 07:38:00,41.5,16.8,29.63,West,270,0.0,0.0,24,0.00,,,0.00,fowsr,2013-03-20 11:38:00,
2013-03-20 07:43:00,41.5,16.8,29.63,West,270,0.0,0.0,24,0.00,,,0.00,fowsr,2013-03-20 11:43:00,
2013-03-20 07:48:00,41.5,16.8,29.63,West,270,0.0,0.0,24,0.00,,,0.00,fowsr,2013-03-20 11:48:00,
2013-03-20 07:53:00,41.5,17.5,29.63,West,270,0.0,0.0,25,0.00,,,0.00,fowsr,2013-03-20 11:53:00,
2013-03-20 07:58:00,41.5,18.1,29.63,West,270,0.0,0.0,26,0.00,,,0.00,fowsr,2013-03-20 11:58:00,
2013-03-20 08:03:00,41.5,18.1,29.63,West,270,0.0,0.0,26,0.00,,,0.00,fowsr,2013-03-20 12:03:00,
2013-03-20 08:08:00,41.5,18.7,29.63,West,270,0.0,0.0,27,0.00,,,0.00,fowsr,2013-03-20 12:08:00,
2013-03-20 08:13:00,41.7,20.6,29.63,South,180,0.0,0.0,30,0.00,,,0.00,fowsr,2013-03-20 12:13:00,
2013-03-20 08:18:00,41.9,20.2,29.63,North,0,0.0,0.0,29,0.00,,,0.00,fowsr,2013-03-20 12:18:00,
2013-03-20 08:23:00,42.1,19.7,29.65,SE,135,0.0,0.0,28,0.00,,,0.00,fowsr,2013-03-20 12:23:00,
2013-03-20 08:28:00,42.4,19.5,29.65,NW,315,0.0,0.0,27,0.00,,,0.00,fowsr,2013-03-20 12:28:00,
2013-03-20 08:33:00,42.8,19.8,29.65,NE,45,0.0,0.0,27,0.00,,,0.00,fowsr,2013-03-20 12:33:00,
2013-03-20 08:38:00,43.0,19.3,29.65,NE,45,0.0,0.0,26,0.00,,,0.00,fowsr,2013-03-20 12:38:00,
2013-03-20 08:43:00,43.2,20.1,29.65,SE,135,0.0,0.7,27,0.00,,,0.00,fowsr,2013-03-20 12:43:00,
2013-03-20 08:48:00,43.3,19.6,29.65,South,180,0.0,0.0,26,0.00,,,0.00,fowsr,2013-03-20 12:48:00,
2013-03-20 08:53:00,43.5,19.1,29.66,NW,315,0.0,0.7,25,0.00,,,0.00,fowsr,2013-03-20 12:53:00,
2013-03-20 08:58:00,43.9,19.4,29.66,West,270,0.0,1.6,25,0.00,,,0.00,fowsr,2013-03-20 12:58:00,
2013-03-20 09:03:00,44.1,19.6,29.65,SW,225,0.0,0.7,25,0.00,,,0.00,fowsr,2013-03-20 13:03:00,
2013-03-20 09:08:00,44.4,19.9,29.65,NW,315,0.0,0.7,25,0.00,,,0.00,fowsr,2013-03-20 13:08:00,
2013-03-20 09:13:00,44.6,19.4,29.66,West,270,0.0,0.7,24,0.00,,,0.00,fowsr,2013-03-20 13:13:00,
2013-03-20 09:18:00,44.8,18.8,29.66,South,180,0.0,1.6,23,0.00,,,0.00,fowsr,2013-03-20 13:18:00,
2013-03-20 09:23:00,45.0,19.0,29.67,South,180,0.7,2.2,23,0.00,,,0.00,fowsr,2013-03-20 13:23:00,
2013-03-20 09:28:00,45.1,19.1,29.66,NW,315,0.0,1.6,23,0.00,,,0.00,fowsr,2013-03-20 13:28:00,
2013-03-20 09:33:00,45.1,18.4,29.66,East,90,0.0,0.7,22,0.00,,,0.00,fowsr,2013-03-20 13:33:00,
2013-03-20 09:38:00,45.3,18.6,29.67,South,180,0.0,0.7,22,0.00,,,0.00,fowsr,2013-03-20 13:38:00,
2013-03-20 09:43:00,45.5,18.7,29.66,NW,315,0.0,0.7,22,0.00,,,0.00,fowsr,2013-03-20 13:43:00,
2013-03-20 09:48:00,45.9,19.0,29.66,SW,225,0.0,1.6,22,0.00,,,0.00,fowsr,2013-03-20 13:48:00,
2013-03-20 09:53:00,46.0,18.4,29.67,South,180,0.0,1.6,21,0.00,,,0.00,fowsr,2013-03-20 13:53:00,
2013-03-20 10:03:00,46.8,21.2,29.67,SW,225,0.0,1.6,24,0.00,,,0.00,fowsr,2013-03-20 14:03:00,
2013-03-20 10:08:00,46.9,20.6,29.67,NE,45,0.0,0.7,23,0.00,,,0.00,fowsr,2013-03-20 14:08:00,
2013-03-20 10:13:00,46.9,20.6,29.67,NE,45,0.7,1.6,23,0.00,,,0.00,fowsr,2013-03-20 14:13:00,
2013-03-20 10:23:00,47.1,20.8,29.67,West,270,0.7,1.6,23,0.00,,,0.00,fowsr,2013-03-20 14:23:00,
2013-03-20 10:28:00,47.1,20.8,29.67,SE,135,0.0,0.0,23,0.00,,,0.00,fowsr,2013-03-20 14:28:00,
2013-03-20 10:33:00,47.3,20.9,29.67,South,180,0.0,0.0,23,0.00,,,0.00,fowsr,2013-03-20 14:33:00,
2013-03-20 10:38:00,47.5,21.1,29.67,NW,315,0.0,0.7,23,0.00,,,0.00,fowsr,2013-03-20 14:38:00,
2013-03-20 10:43:00,47.7,21.2,29.67,North,0,0.0,0.7,23,0.00,,,0.00,fowsr,2013-03-20 14:43:00,
2013-03-20 10:48:00,47.8,21.4,29.67,SE,135,0.0,0.7,23,0.00,,,0.00,fowsr,2013-03-20 14:48:00,
2013-03-20 10:53:00,48.2,20.9,29.66,ENE,67,0.0,0.0,22,0.00,,,0.00,fowsr,2013-03-20 14:53:00,
2013-03-20 10:58:00,48.2,20.9,29.67,SW,225,0.0,1.6,22,0.00,,,0.00,fowsr,2013-03-20 14:58:00,
2013-03-20 11:03:00,48.4,21.1,29.66,SE,135,0.0,2.2,22,0.00,,,0.00,fowsr,2013-03-20 15:03:00,
2013-03-20 11:08:00,48.4,21.1,29.66,West,270,0.0,0.7,22,0.00,,,0.00,fowsr,2013-03-20 15:08:00,
2013-03-20 11:13:00,48.4,21.1,29.66,NW,315,0.7,1.6,22,0.00,,,0.00,fowsr,2013-03-20 15:13:00,
2013-03-20 11:18:00,48.0,21.5,29.66,East,90,0.0,0.7,23,0.00,,,0.00,fowsr,2013-03-20 15:18:00,
2013-03-20 11:23:00,48.4,21.1,29.65,West,270,0.0,0.7,22,0.00,,,0.00,fowsr,2013-03-20 15:23:00,
2013-03-20 11:28:00,48.4,21.1,29.65,West,270,0.0,0.7,22,0.00,,,0.00,fowsr,2013-03-20 15:28:00,
2013-03-20 11:33:00,48.6,21.2,29.65,SW,225,0.0,0.7,22,0.00,,,0.00,fowsr,2013-03-20 15:33:00,
2013-03-20 11:38:00,48.7,21.4,29.65,NW,315,0.0,0.0,22,0.00,,,0.00,fowsr,2013-03-20 15:38:00,
2013-03-20 11:43:00,49.3,21.8,29.65,NW,315,0.0,0.0,22,0.00,,,0.00,fowsr,2013-03-20 15:43:00,
2013-03-20 11:48:00,49.6,22.1,29.65,NE,45,0.0,0.7,22,0.00,,,0.00,fowsr,2013-03-20 15:48:00,
2013-03-20 11:53:00,50.0,21.6,29.65,South,180,0.0,1.6,21,0.00,,,0.00,fowsr,2013-03-20 15:53:00,
2013-03-20 11:58:00,50.5,22.1,29.65,SE,135,0.7,2.2,21,0.00,,,0.00,fowsr,2013-03-20 15:58:00,
2013-03-20 12:03:00,51.1,22.5,29.64,SE,135,0.7,3.1,21,0.00,,,0.00,fowsr,2013-03-20 16:03:00,
2013-03-20 12:08:00,51.3,22.7,29.64,NE,45,0.0,1.6,21,0.00,,,0.00,fowsr,2013-03-20 16:08:00,
2013-03-20 12:13:00,51.6,22.1,29.64,SW,225,0.7,2.2,20,0.00,,,0.00,fowsr,2013-03-20 16:13:00,
2013-03-20 12:18:00,52.2,21.7,29.63,NW,315,0.0,0.7,19,0.00,,,0.00,fowsr,2013-03-20 16:18:00,
2013-03-20 12:23:00,52.3,21.9,29.64,West,270,1.6,2.2,19,0.00,,,0.00,fowsr,2013-03-20 16:23:00,
2013-03-20 12:28:00,52.0,21.6,29.64,SE,135,0.0,0.0,19,0.00,,,0.00,fowsr,2013-03-20 16:28:00,
2013-03-20 12:38:00,52.9,23.2,29.63,SE,135,2.2,4.5,20,0.00,,,0.00,fowsr,2013-03-20 16:38:00,
2013-03-20 12:43:00,52.9,22.3,29.63,North,0,0.0,0.0,19,0.00,,,0.00,fowsr,2013-03-20 16:43:00,
2013-03-20 12:48:00,52.9,22.3,29.63,West,270,0.0,0.7,19,0.00,,,0.00,fowsr,2013-03-20 16:48:00,
2013-03-20 12:53:00,53.2,22.6,29.62,NW,315,0.0,0.7,19,0.00,,,0.00,fowsr,2013-03-20 16:53:00,
2013-03-20 12:58:00,53.6,22.9,29.62,NW,315,0.7,1.6,19,0.00,,,0.00,fowsr,2013-03-20 16:58:00,
2013-03-20 13:03:00,53.8,22.1,29.61,ESE,112,1.6,2.2,18,0.00,,,0.00,fowsr,2013-03-20 17:03:00,
2013-03-20 13:08:00,53.4,22.7,29.61,SW,225,0.7,1.6,19,0.00,,,0.00,fowsr,2013-03-20 17:08:00,
2013-03-20 13:13:00,53.4,22.7,29.61,East,90,0.0,1.6,19,0.00,,,0.00,fowsr,2013-03-20 17:13:00,
2013-03-20 13:18:00,53.6,22.0,29.61,SW,225,3.1,4.5,18,0.00,,,0.00,fowsr,2013-03-20 17:18:00,
2013-03-20 13:23:00,53.4,22.7,29.60,North,0,0.7,3.1,19,0.00,,,0.00,fowsr,2013-03-20 17:23:00,
2013-03-20 13:28:00,53.2,22.6,29.59,NE,45,0.0,0.7,19,0.00,,,0.00,fowsr,2013-03-20 17:28:00,
2013-03-20 13:33:00,53.6,22.0,29.59,SE,135,1.6,3.8,18,0.00,,,0.00,fowsr,2013-03-20 17:33:00,
2013-03-20 13:38:00,53.6,22.0,29.58,SW,225,0.7,2.2,18,0.00,,,0.00,fowsr,2013-03-20 17:38:00,
2013-03-20 13:43:00,53.6,22.0,29.57,South,180,0.7,1.6,18,0.00,,,0.00,fowsr,2013-03-20 17:43:00,
2013-03-20 13:48:00,54.1,22.4,29.57,NE,45,0.7,1.6,18,0.00,,,0.00,fowsr,2013-03-20 17:48:00,
2013-03-20 13:53:00,54.0,22.3,29.57,SSE,157,0.0,1.6,18,0.00,,,0.00,fowsr,2013-03-20 17:53:00,
2013-03-20 13:58:00,54.3,22.6,29.57,North,0,1.6,2.2,18,0.00,,,0.00,fowsr,2013-03-20 17:58:00,
2013-03-20 14:03:00,54.1,22.4,29.56,SE,135,1.6,2.2,18,0.00,,,0.00,fowsr,2013-03-20 18:03:00,
2013-03-20 14:08:00,54.9,23.0,29.55,North,0,0.7,1.6,18,0.00,,,0.00,fowsr,2013-03-20 18:08:00,
2013-03-20 14:13:00,55.6,26.2,29.55,NW,315,0.0,0.7,21,0.00,,,0.00,fowsr,2013-03-20 18:13:00,
2013-03-20 14:18:00,56.3,26.7,29.55,NE,45,2.2,3.1,21,0.00,,,0.00,fowsr,2013-03-20 18:18:00,
2013-03-20 14:23:00,56.3,25.9,29.54,West,270,0.7,1.6,20,0.00,,,0.00,fowsr,2013-03-20 18:23:00,
2013-03-20 14:28:00,56.3,25.9,29.54,NW,315,0.7,1.6,20,0.00,,,0.00,fowsr,2013-03-20 18:28:00,
2013-03-20 14:33:00,56.3,25.9,29.53,East,90,1.6,4.5,20,0.00,,,0.00,fowsr,2013-03-20 18:33:00,
2013-03-20 14:38:00,56.5,26.9,29.53,SW,225,0.7,3.1,21,0.00,,,0.00,fowsr,2013-03-20 18:38:00,
2013-03-20 14:43:00,56.7,27.0,29.53,SW,225,0.0,0.7,21,0.00,,,0.00,fowsr,2013-03-20 18:43:00,
2013-03-20 14:48:00,56.8,26.3,29.53,NW,315,1.6,3.1,20,0.00,,,0.00,fowsr,2013-03-20 18:48:00,
2013-03-20 14:53:00,57.4,26.8,29.53,NW,315,0.0,0.7,20,0.00,,,0.00,fowsr,2013-03-20 18:53:00,
2013-03-20 15:03:00,57.9,27.2,29.51,NW,315,0.7,1.6,20,0.00,,,0.00,fowsr,2013-03-20 19:03:00,
2013-03-20 15:13:00,57.6,26.9,29.50,SE,135,1.6,3.8,20,0.00,,,0.00,fowsr,2013-03-20 19:13:00,
2013-03-20 15:18:00,57.6,26.9,29.49,NW,315,0.7,2.2,20,0.00,,,0.00,fowsr,2013-03-20 19:18:00,
2013-03-20 15:23:00,57.6,26.9,29.50,NW,315,0.0,0.7,20,0.00,,,0.00,fowsr,2013-03-20 19:23:00,
2013-03-20 15:28:00,57.4,26.8,29.50,SW,225,1.6,3.8,20,0.00,,,0.00,fowsr,2013-03-20 19:28:00,
2013-03-20 15:33:00,57.6,26.9,29.49,NW,315,0.7,2.2,20,0.00,,,0.00,fowsr,2013-03-20 19:33:00,
2013-03-20 15:38:00,58.1,27.4,29.48,East,90,1.6,2.2,20,0.00,,,0.00,fowsr,2013-03-20 19:38:00,
2013-03-20 15:43:00,58.5,27.6,29.48,SE,135,0.7,1.6,20,0.00,,,0.00,fowsr,2013-03-20 19:43:00,
2013-03-20 15:48:00,58.3,27.5,29.47,West,270,0.0,2.2,20,0.00,,,0.00,fowsr,2013-03-20 19:48:00,
2013-03-20 15:53:00,57.7,27.1,29.47,NE,45,2.2,3.8,20,0.00,,,0.00,fowsr,2013-03-20 19:53:00,
2013-03-20 15:58:00,57.4,26.8,29.47,East,90,0.7,2.2,20,0.00,,,0.00,fowsr,2013-03-20 19:58:00,
2013-03-20 16:03:00,57.0,27.3,29.46,SE,135,1.6,4.5,21,0.00,,,0.00,fowsr,2013-03-20 20:03:00,
2013-03-20 16:08:00,56.7,26.2,29.45,South,180,0.7,3.1,20,0.00,,,0.00,fowsr,2013-03-20 20:08:00,
2013-03-20 16:13:00,57.2,26.6,29.45,SW,225,1.6,2.2,20,0.00,,,0.00,fowsr,2013-03-20 20:13:00,
2013-03-20 16:18:00,57.2,26.6,29.44,SE,135,0.0,1.6,20,0.00,,,0.00,fowsr,2013-03-20 20:18:00,
2013-03-20 16:23:00,57.6,26.9,29.45,South,180,0.0,2.2,20,0.00,,,0.00,fowsr,2013-03-20 20:23:00,
2013-03-20 16:28:00,57.7,27.1,29.44,East,90,1.6,3.8,20,0.00,,,0.00,fowsr,2013-03-20 20:28:00,
2013-03-20 16:33:00,57.4,26.8,29.44,North,0,1.6,3.1,20,0.00,,,0.00,fowsr,2013-03-20 20:33:00,
2013-03-20 16:38:00,57.0,27.3,29.44,NE,45,0.7,2.2,21,0.00,,,0.00,fowsr,2013-03-20 20:38:00,
2013-03-20 16:43:00,56.8,27.2,29.43,NW,315,1.6,3.1,21,0.00,,,0.00,fowsr,2013-03-20 20:43:00,
2013-03-20 16:48:00,56.8,27.2,29.43,SE,135,0.7,3.1,21,0.00,,,0.00,fowsr,2013-03-20 20:48:00,
2013-03-20 16:53:00,57.0,27.3,29.43,NW,315,2.2,3.1,21,0.00,,,0.00,fowsr,2013-03-20 20:53:00,
2013-03-20 17:03:00,56.8,27.2,29.42,South,180,0.0,1.6,21,0.00,,,0.00,fowsr,2013-03-20 21:03:00,
2013-03-20 17:08:00,56.8,27.2,29.42,NW,315,1.6,2.2,21,0.00,,,0.00,fowsr,2013-03-20 21:08:00,
2013-03-20 17:13:00,56.7,27.0,29.42,West,270,0.7,2.2,21,0.00,,,0.00,fowsr,2013-03-20 21:13:00,
2013-03-20 17:18:00,56.3,26.7,29.42,East,90,0.0,1.6,21,0.00,,,0.00,fowsr,2013-03-20 21:18:00,
2013-03-20 17:23:00,56.1,26.6,29.42,East,90,0.0,0.7,21,0.00,,,0.00,fowsr,2013-03-20 21:23:00,
2013-03-20 17:28:00,56.3,26.7,29.42,SE,135,0.7,2.2,21,0.00,,,0.00,fowsr,2013-03-20 21:28:00,
2013-03-20 17:33:00,56.7,27.0,29.41,NW,315,0.7,2.2,21,0.00,,,0.00,fowsr,2013-03-20 21:33:00,
2013-03-20 17:38:00,57.0,27.3,29.41,NW,315,0.7,2.2,21,0.00,,,0.00,fowsr,2013-03-20 21:38:00,
2013-03-20 17:43:00,57.4,26.8,29.42,SW,225,0.0,0.7,20,0.00,,,0.00,fowsr,2013-03-20 21:43:00,
2013-03-20 17:48:00,57.6,26.1,29.42,West,270,0.0,1.6,19,0.00,,,0.00,fowsr,2013-03-20 21:48:00,
2013-03-20 17:58:00,57.6,26.1,29.41,South,180,0.7,2.2,19,0.00,,,0.00,fowsr,2013-03-20 21:58:00,
2013-03-20 18:03:00,57.0,27.3,29.41,SSE,157,0.7,2.2,21,0.00,,,0.00,fowsr,2013-03-20 22:03:00,
2013-03-20 18:08:00,56.8,27.2,29.42,SW,225,2.2,5.4,21,0.00,,,0.00,fowsr,2013-03-20 22:08:00,
2013-03-20 18:13:00,56.7,27.0,29.42,South,180,0.0,0.7,21,0.00,,,0.00,fowsr,2013-03-20 22:13:00,
2013-03-20 18:18:00,56.3,25.9,29.42,NW,315,0.0,1.6,20,0.00,,,0.00,fowsr,2013-03-20 22:18:00,
2013-03-20 18:23:00,56.1,26.6,29.42,South,180,0.0,1.6,21,0.00,,,0.00,fowsr,2013-03-20 22:23:00,
2013-03-20 18:28:00,56.1,26.6,29.42,NE,45,0.0,0.7,21,0.00,,,0.00,fowsr,2013-03-20 22:28:00,
2013-03-20 18:33:00,55.9,26.5,29.42,NW,315,0.7,2.2,21,0.00,,,0.00,fowsr,2013-03-20 22:33:00,
2013-03-20 18:38:00,55.9,26.5,29.42,SE,135,0.0,0.7,21,0.00,,,0.00,fowsr,2013-03-20 22:38:00,
2013-03-20 18:43:00,55.4,25.2,29.42,North,0,0.0,0.0,20,0.00,,,0.00,fowsr,2013-03-20 22:43:00,
2013-03-20 18:48:00,55.2,24.2,29.42,SE,135,0.0,0.0,19,0.00,,,0.00,fowsr,2013-03-20 22:48:00,
2013-03-20 18:53:00,54.7,23.8,29.42,SE,135,0.0,0.7,19,0.00,,,0.00,fowsr,2013-03-20 22:53:00,
2013-03-20 18:58:00,54.3,23.5,29.42,SW,225,0.0,0.7,19,0.00,,,0.00,fowsr,2013-03-20 22:58:00,
2013-03-20 19:03:00,54.1,23.3,29.42,East,90,0.0,0.7,19,0.00,,,0.00,fowsr,2013-03-20 23:03:00,
2013-03-20 19:08:00,53.8,23.0,29.41,SE,135,0.0,1.6,19,0.00,,,0.00,fowsr,2013-03-20 23:08:00,
2013-03-20 19:13:00,53.4,23.6,29.42,South,180,0.0,0.0,20,0.00,,,0.00,fowsr,2013-03-20 23:13:00,
2013-03-20 19:18:00,53.1,23.3,29.41,NE,45,0.0,0.7,20,0.00,,,0.00,fowsr,2013-03-20 23:18:00,
2013-03-20 19:23:00,52.5,22.9,29.41,NE,45,0.0,0.0,20,0.00,,,0.00,fowsr,2013-03-20 23:23:00,
2013-03-20 19:28:00,52.2,23.4,29.40,NW,315,0.0,0.0,21,0.00,,,0.00,fowsr,2013-03-20 23:28:00,
2013-03-20 19:33:00,51.6,24.5,29.40,SE,135,0.0,0.7,23,0.00,,,0.00,fowsr,2013-03-20 23:33:00,
2013-03-20 19:38:00,51.3,24.2,29.41,SE,135,0.0,0.7,23,0.00,,,0.00,fowsr,2013-03-20 23:38:00,
2013-03-20 19:43:00,50.9,23.9,29.40,SE,135,0.0,0.0,23,0.00,,,0.00,fowsr,2013-03-20 23:43:00,
2013-03-20 19:48:00,50.5,23.6,29.40,East,90,0.0,0.0,23,0.00,,,0.00,fowsr,2013-03-20 23:48:00,
2013-03-20 19:53:00,50.0,23.8,29.39,East,90,0.0,0.0,24,0.00,,,0.00,fowsr,2013-03-20 23:53:00,
2013-03-20 19:58:00,49.6,24.9,29.39,East,90,0.0,0.0,26,0.00,,,0.00,fowsr,2013-03-20 23:58:00,
2013-03-20 20:03:00,49.1,24.4,29.39,East,90,0.0,0.0,26,0.00,,,0.00,fowsr,2013-03-21 00:03:00,
2013-03-20 20:08:00,48.7,24.8,29.39,East,90,0.0,0.0,27,0.00,,,0.00,fowsr,2013-03-21 00:08:00,
2013-03-20 20:13:00,48.0,25.4,29.39,East,90,0.0,0.0,29,0.00,,,0.00,fowsr,2013-03-21 00:13:00,
2013-03-20 20:18:00,47.8,25.2,29.39,East,90,0.0,0.0,29,0.00,,,0.00,fowsr,2013-03-21 00:18:00,
2013-03-20 20:23:00,47.5,25.5,29.39,East,90,0.0,0.0,30,0.00,,,0.00,fowsr,2013-03-21 00:23:00,
2013-03-20 20:28:00,47.1,25.2,29.39,East,90,0.0,0.0,30,0.00,,,0.00,fowsr,2013-03-21 00:28:00,
2013-03-20 20:33:00,46.6,25.8,29.39,East,90,0.0,0.0,32,0.00,,,0.00,fowsr,2013-03-21 00:33:00,
2013-03-20 20:38:00,46.2,24.9,29.39,East,90,0.0,0.0,31,0.00,,,0.00,fowsr,2013-03-21 00:38:00,
2013-03-20 20:43:00,45.7,25.0,29.39,East,90,0.0,0.0,32,0.00,,,0.00,fowsr,2013-03-21 00:43:00,
2013-03-20 20:48:00,45.3,25.2,29.39,East,90,0.0,0.0,33,0.00,,,0.00,fowsr,2013-03-21 00:48:00,
2013-03-20 20:53:00,44.8,25.7,29.39,East,90,0.0,0.0,35,0.00,,,0.00,fowsr,2013-03-21 00:53:00,
2013-03-20 21:03:00,44.1,27.0,29.39,East,90,0.0,0.0,39,0.00,,,0.00,fowsr,2013-03-21 01:03:00,
2013-03-20 21:08:00,43.9,26.8,29.39,East,90,0.0,0.0,39,0.00,,,0.00,fowsr,2013-03-21 01:08:00,
2013-03-20 21:13:00,43.5,26.9,29.39,East,90,0.0,0.0,40,0.00,,,0.00,fowsr,2013-03-21 01:13:00,
2013-03-20 21:18:00,43.2,27.0,29.39,East,90,0.0,0.0,41,0.00,,,0.00,fowsr,2013-03-21 01:18:00,
2013-03-20 21:23:00,42.8,26.7,29.38,East,90,0.0,0.0,41,0.00,,,0.00,fowsr,2013-03-21 01:23:00,
2013-03-20 21:28:00,42.6,27.3,29.38,East,90,0.0,0.0,43,0.00,,,0.00,fowsr,2013-03-21 01:28:00,
2013-03-20 21:33:00,42.4,27.2,29.38,East,90,0.0,0.0,43,0.00,,,0.00,fowsr,2013-03-21 01:33:00,
2013-03-20 21:38:00,42.1,27.3,29.38,East,90,0.0,0.0,44,0.00,,,0.00,fowsr,2013-03-21 01:38:00,
2013-03-20 21:43:00,41.7,26.9,29.38,East,90,0.0,0.0,44,0.00,,,0.00,fowsr,2013-03-21 01:43:00,
2013-03-20 21:48:00,41.5,27.2,29.38,East,90,0.0,0.0,45,0.00,,,0.00,fowsr,2013-03-21 01:48:00,
2013-03-20 21:53:00,41.4,27.0,29.38,East,90,0.0,0.7,45,0.00,,,0.00,fowsr,2013-03-21 01:53:00,
2013-03-20 21:58:00,41.4,27.4,29.38,SE,135,0.0,0.7,46,0.00,,,0.00,fowsr,2013-03-21 01:58:00,
2013-03-20 22:08:00,41.4,27.4,29.37,SE,135,0.0,0.0,46,0.00,,,0.00,fowsr,2013-03-21 02:08:00,
2013-03-20 22:13:00,41.0,27.0,29.37,SE,135,0.0,0.0,46,0.00,,,0.00,fowsr,2013-03-21 02:13:00,
2013-03-20 22:23:00,40.6,27.4,29.37,SE,135,0.0,0.0,48,0.00,,,0.00,fowsr,2013-03-21 02:23:00,
2013-03-20 22:28:00,40.5,27.6,29.37,SE,135,0.0,0.0,49,0.00,,,0.00,fowsr,2013-03-21 02:28:00,
2013-03-20 22:33:00,40.3,27.5,29.37,SE,135,0.0,0.0,49,0.00,,,0.00,fowsr,2013-03-21 02:33:00,
2013-03-20 22:38:00,40.3,27.5,29.37,SE,135,0.0,0.0,49,0.00,,,0.00,fowsr,2013-03-21 02:38:00,
2013-03-20 22:43:00,40.3,27.5,29.37,SE,135,0.0,0.0,49,0.00,,,0.00,fowsr,2013-03-21 02:43:00,
2013-03-20 22:48:00,40.1,27.3,29.37,SE,135,0.0,0.0,49,0.00,,,0.00,fowsr,2013-03-21 02:48:00,
2013-03-20 22:53:00,40.1,27.0,29.37,SE,135,0.0,0.0,48,0.00,,,0.00,fowsr,2013-03-21 02:53:00,
2013-03-20 22:58:00,40.1,27.0,29.37,SE,135,0.0,0.0,48,0.00,,,0.00,fowsr,2013-03-21 02:58:00,
2013-03-20 23:03:00,40.1,27.0,29.36,SE,135,0.0,0.0,48,0.00,,,0.00,fowsr,2013-03-21 03:03:00,
2013-03-20 23:08:00,40.1,26.6,29.36,East,90,0.0,0.0,47,0.00,,,0.00,fowsr,2013-03-21 03:08:00,
2013-03-20 23:13:00,40.5,26.9,29.36,SE,135,0.0,0.0,47,0.00,,,0.00,fowsr,2013-03-21 03:13:00,
2013-03-20 23:18:00,40.6,27.1,29.36,SE,135,0.0,0.0,47,0.00,,,0.00,fowsr,2013-03-21 03:18:00,
2013-03-20 23:23:00,41.0,27.0,29.36,SE,135,0.0,0.0,46,0.00,,,0.00,fowsr,2013-03-21 03:23:00,
2013-03-20 23:28:00,41.0,26.7,29.35,SE,135,0.0,0.0,45,0.00,,,0.00,fowsr,2013-03-21 03:28:00,
2013-03-20 23:33:00,41.2,26.8,29.34,SE,135,0.0,0.0,45,0.00,,,0.00,fowsr,2013-03-21 03:33:00,
2013-03-20 23:38:00,41.2,26.8,29.34,SE,135,0.0,0.0,45,0.00,,,0.00,fowsr,2013-03-21 03:38:00,
2013-03-20 23:43:00,41.2,27.2,29.34,SE,135,0.0,0.0,46,0.00,,,0.00,fowsr,2013-03-21 03:43:00,
2013-03-20 23:48:00,41.0,27.0,29.33,SE,135,0.0,0.0,46,0.00,,,0.00,fowsr,2013-03-21 03:48:00,
2013-03-20 23:58:00,41.0,27.4,29.33,SE,135,0.0,0.0,47,0.00,,,0.00,fowsr,2013-03-21 03:58:00,